createdAt,value
2023-06-09T00:02:20.331Z,3.47
2023-06-09T00:04:46.995Z,3.63
2023-06-09T00:07:17.018Z,3.97
2023-06-09T00:09:45.077Z,3.92
2023-06-09T00:12:13.275Z,3.58
2023-06-09T00:14:39.851Z,3.95
2023-06-09T00:17:09.117Z,3.67
2023-06-09T00:19:37.164Z,4.15
2023-06-09T00:22:04.096Z,4.47
2023-06-09T00:24:30.691Z,4.18
2023-06-09T00:26:57.157Z,4.53
2023-06-09T00:29:23.629Z,4.60
2023-06-09T00:31:50.172Z,3.83
2023-06-09T00:34:16.814Z,5.13
2023-06-09T00:36:43.301Z,4.28
2023-06-09T00:39:09.982Z,4.57
2023-06-09T00:41:37.585Z,3.83
2023-06-09T00:44:04.785Z,4.85
2023-06-09T00:46:31.475Z,3.95
2023-06-09T00:48:58.039Z,4.95
2023-06-09T00:51:24.871Z,4.60
2023-06-09T00:53:51.692Z,3.53
2023-06-09T00:56:19.681Z,3.22
2023-06-09T00:58:46.830Z,4.35
2023-06-09T01:01:13.372Z,3.90
2023-06-09T01:03:40.072Z,5.60
2023-06-09T01:06:27.794Z,4.40
2023-06-09T01:09:01.113Z,3.85
2023-06-09T01:11:40.397Z,3.47
2023-06-09T01:14:23.353Z,3.90
2023-06-09T01:16:54.843Z,3.55
2023-06-09T01:19:32.728Z,3.90
2023-06-09T01:22:10.813Z,4.50
2023-06-09T01:24:48.679Z,4.22
2023-06-09T01:27:18.304Z,4.25
2023-06-09T01:29:46.228Z,4.05
2023-06-09T01:32:16.214Z,3.95
2023-06-09T01:34:44.090Z,3.47
2023-06-09T01:37:11.070Z,4.78
2023-06-09T01:39:38.255Z,3.83
2023-06-09T01:42:07.053Z,4.10
2023-06-09T01:44:36.315Z,3.40
2023-06-09T01:47:02.935Z,3.80
2023-06-09T01:49:59.536Z,4.10
2023-06-09T01:52:32.754Z,4.20
2023-06-09T01:55:10.173Z,3.47
2023-06-09T01:57:43.568Z,4.68
2023-06-09T02:00:10.797Z,4.18
2023-06-09T02:02:38.587Z,3.83
2023-06-09T02:05:07.925Z,4.03
2023-06-09T02:07:35.039Z,3.92
2023-06-09T02:10:02.306Z,4.78
2023-06-09T02:12:34.874Z,4.15
2023-06-09T02:15:01.863Z,4.10
2023-06-09T02:17:29.068Z,4.32
2023-06-09T02:19:56.160Z,4.15
2023-06-09T02:22:22.673Z,4.22
2023-06-09T02:24:49.150Z,4.57
2023-06-09T02:27:15.629Z,3.92
2023-06-09T02:29:42.093Z,4.25
2023-06-09T02:32:08.909Z,3.83
2023-06-09T02:34:35.398Z,3.65
2023-06-09T02:37:03.160Z,3.90
2023-06-09T02:39:29.649Z,4.15
2023-06-09T02:41:56.199Z,5.18
2023-06-09T02:44:22.799Z,4.35
2023-06-09T02:46:49.328Z,5.18
2023-06-09T02:49:17.398Z,4.32
2023-06-09T02:51:44.060Z,4.70
2023-06-09T02:54:10.590Z,4.32
2023-06-09T02:56:37.104Z,4.40
2023-06-09T02:59:03.889Z,4.70
2023-06-09T03:01:36.112Z,4.28
2023-06-09T03:04:08.768Z,5.40
2023-06-09T03:06:36.596Z,4.40
2023-06-09T03:09:03.875Z,4.97
2023-06-09T03:11:31.092Z,4.45
2023-06-09T03:13:57.527Z,4.45
2023-06-09T03:16:24.106Z,4.90
2023-06-09T03:18:51.002Z,4.57
2023-06-09T03:21:17.618Z,5.43
2023-06-09T03:23:44.141Z,4.65
2023-06-09T03:26:10.664Z,4.85
2023-06-09T03:28:37.142Z,4.80
2023-06-09T03:31:04.398Z,4.90
2023-06-09T03:33:31.000Z,4.82
2023-06-09T03:35:57.583Z,4.60
2023-06-09T03:38:24.116Z,5.70
2023-06-09T03:40:50.642Z,4.82
2023-06-09T03:43:17.159Z,5.22
2023-06-09T03:45:43.602Z,4.47
2023-06-09T03:48:10.172Z,5.40
2023-06-09T03:50:36.758Z,5.18
2023-06-09T03:53:03.282Z,5.25
2023-06-09T03:55:32.513Z,4.40
2023-06-09T03:57:59.091Z,4.85
2023-06-09T04:00:25.597Z,4.65
2023-06-09T04:02:52.075Z,5.07
2023-06-09T04:05:18.699Z,4.85
2023-06-09T04:07:45.355Z,4.53
2023-06-09T04:10:11.794Z,4.75
2023-06-09T04:12:39.213Z,5.03
2023-06-09T04:15:07.543Z,4.90
2023-06-09T04:17:35.262Z,5.30
2023-06-09T04:20:06.036Z,6.00
2023-06-09T04:22:32.825Z,5.10
2023-06-09T04:24:59.301Z,5.30
2023-06-09T04:27:26.823Z,4.75
2023-06-09T04:29:53.280Z,4.93
2023-06-09T04:32:20.292Z,5.28
2023-06-09T04:34:47.227Z,5.05
2023-06-09T04:37:14.063Z,4.57
2023-06-09T04:39:46.615Z,5.25
2023-06-09T04:42:13.311Z,5.75
2023-06-09T04:44:40.967Z,5.40
2023-06-09T04:47:11.810Z,4.78
2023-06-09T04:49:38.562Z,4.93
2023-06-09T04:52:08.648Z,5.63
2023-06-09T04:54:35.274Z,5.13
2023-06-09T04:57:03.272Z,5.80
2023-06-09T04:59:33.056Z,5.25
2023-06-09T05:01:59.864Z,6.47
2023-06-09T05:04:26.332Z,5.57
2023-06-09T05:06:53.244Z,5.88
2023-06-09T05:09:19.674Z,5.80
2023-06-09T05:11:46.179Z,6.13
2023-06-09T05:14:12.661Z,6.45
2023-06-09T05:16:39.266Z,6.60
2023-06-09T05:19:05.848Z,6.70
2023-06-09T05:21:32.353Z,5.43
2023-06-09T05:23:59.059Z,6.47
2023-06-09T05:26:26.777Z,6.22
2023-06-09T05:28:53.273Z,5.82
2023-06-09T05:31:20.335Z,7.38
2023-06-09T05:33:47.434Z,6.25
2023-06-09T05:36:13.903Z,5.72
2023-06-09T05:38:40.434Z,6.80
2023-06-09T05:41:07.129Z,5.95
2023-06-09T05:43:33.613Z,7.57
2023-06-09T05:46:00.434Z,6.50
2023-06-09T05:48:27.026Z,6.22
2023-06-09T05:50:53.586Z,6.50
2023-06-09T05:53:20.074Z,7.28
2023-06-09T05:55:46.544Z,8.93
2023-06-09T05:58:14.463Z,5.90
2023-06-09T06:00:40.940Z,6.22
2023-06-09T06:03:09.637Z,7.28
2023-06-09T06:05:36.278Z,6.82
2023-06-09T06:08:02.741Z,6.55
2023-06-09T06:10:29.341Z,7.32
2023-06-09T06:12:59.093Z,5.80
2023-06-09T06:15:26.088Z,7.00
2023-06-09T06:17:52.609Z,7.05
2023-06-09T06:20:19.270Z,7.65
2023-06-09T06:22:45.763Z,6.93
2023-06-09T06:25:14.152Z,6.10
2023-06-09T06:27:41.952Z,6.13
2023-06-09T06:30:09.641Z,6.65
2023-06-09T06:32:37.649Z,7.45
2023-06-09T06:35:04.457Z,7.88
2023-06-09T06:37:31.488Z,7.28
2023-06-09T06:39:57.958Z,8.15
2023-06-09T06:42:24.482Z,6.80
2023-06-09T06:44:51.072Z,7.70
2023-06-09T06:47:17.534Z,7.07
2023-06-09T06:49:44.012Z,8.50
2023-06-09T06:52:11.024Z,7.15
2023-06-09T06:54:37.592Z,8.07
2023-06-09T06:57:04.306Z,7.05
2023-06-09T06:59:30.786Z,8.32
2023-06-09T07:01:57.233Z,8.23
2023-06-09T07:04:23.724Z,7.63
2023-06-09T07:06:50.184Z,7.00
2023-06-09T07:09:16.630Z,8.15
2023-06-09T07:11:45.200Z,8.18
2023-06-09T07:14:11.668Z,8.68
2023-06-09T07:16:38.164Z,6.47
2023-06-09T07:19:04.596Z,7.55
2023-06-09T07:21:33.203Z,7.80
2023-06-09T07:23:59.792Z,7.50
2023-06-09T07:26:26.342Z,7.88
2023-06-09T07:28:52.841Z,8.40
2023-06-09T07:31:19.398Z,7.22
2023-06-09T07:33:45.875Z,7.63
2023-06-09T07:36:13.124Z,8.48
2023-06-09T07:38:39.628Z,8.00
2023-06-09T07:41:06.596Z,8.82
2023-06-09T07:43:33.069Z,7.45
2023-06-09T07:45:59.588Z,7.63
2023-06-09T07:48:26.832Z,7.72
2023-06-09T07:51:00.740Z,7.68
2023-06-09T07:53:28.569Z,8.13
2023-06-09T07:55:54.998Z,7.75
2023-06-09T07:58:21.921Z,7.40
2023-06-09T08:00:48.514Z,7.90
2023-06-09T08:03:15.014Z,7.80
2023-06-09T08:05:41.920Z,8.55
2023-06-09T08:08:08.533Z,7.63
2023-06-09T08:10:34.954Z,8.38
2023-06-09T08:13:01.441Z,8.02
2023-06-09T08:15:27.952Z,8.20
2023-06-09T08:17:54.525Z,7.63
2023-06-09T08:20:21.014Z,9.05
2023-06-09T08:22:47.455Z,8.13
2023-06-09T08:25:14.055Z,7.63
2023-06-09T08:27:40.586Z,8.00
2023-06-09T08:30:08.593Z,7.72
2023-06-09T08:32:35.507Z,7.40
2023-06-09T08:35:07.939Z,8.02
2023-06-09T08:37:34.853Z,7.70
2023-06-09T08:40:03.304Z,8.15
2023-06-09T08:42:32.140Z,8.65
2023-06-09T08:45:08.467Z,9.18
2023-06-09T08:47:37.544Z,9.52
2023-06-09T08:50:04.498Z,7.55
2023-06-09T08:52:31.428Z,7.95
2023-06-09T08:54:59.429Z,8.27
2023-06-09T08:57:25.926Z,8.50
2023-06-09T08:59:53.603Z,8.90
2023-06-09T09:02:20.102Z,8.38
2023-06-09T09:04:46.537Z,7.10
2023-06-09T09:07:13.657Z,7.22
2023-06-09T09:09:40.824Z,8.20
2023-06-09T09:12:13.650Z,7.28
2023-06-09T09:14:42.818Z,8.15
2023-06-09T09:17:13.833Z,7.72
2023-06-09T09:19:46.485Z,7.32
2023-06-09T09:22:13.498Z,8.15
2023-06-09T09:24:45.794Z,7.97
2023-06-09T09:27:19.686Z,8.85
2023-06-09T09:29:47.353Z,7.72
2023-06-09T09:32:14.453Z,7.63
2023-06-09T09:34:42.490Z,9.02
2023-06-09T09:37:13.167Z,7.85
2023-06-09T09:39:49.561Z,8.52
2023-06-09T09:42:16.068Z,8.32
2023-06-09T09:44:44.762Z,8.20
2023-06-09T09:47:15.546Z,8.63
2023-06-09T09:49:56.551Z,6.95
2023-06-09T09:52:25.795Z,7.78
2023-06-09T09:54:56.497Z,8.48
2023-06-09T09:57:29.939Z,7.75
2023-06-09T09:59:57.255Z,8.55
2023-06-09T10:02:29.315Z,6.85
2023-06-09T10:04:57.885Z,7.72
2023-06-09T10:07:27.390Z,7.93
2023-06-09T10:09:54.559Z,7.70
2023-06-09T10:12:21.683Z,7.03
2023-06-09T10:14:49.604Z,6.80
2023-06-09T10:17:23.001Z,7.70
2023-06-09T10:19:53.427Z,7.50
2023-06-09T10:22:21.276Z,7.85
2023-06-09T10:24:48.096Z,7.05
2023-06-09T10:27:15.565Z,7.70
2023-06-09T10:29:42.593Z,7.78
2023-06-09T10:32:13.339Z,8.32
2023-06-09T10:34:42.199Z,7.35
2023-06-09T10:37:08.836Z,7.50
2023-06-09T10:39:59.097Z,7.50
2023-06-09T10:42:41.647Z,8.10
2023-06-09T10:45:15.696Z,7.45
2023-06-09T10:47:44.677Z,7.95
2023-06-09T10:50:33.380Z,7.95
2023-06-09T10:53:00.990Z,7.07
2023-06-09T10:55:28.663Z,7.95
2023-06-09T10:57:56.181Z,6.75
2023-06-09T11:00:24.188Z,6.45
2023-06-09T11:03:30.830Z,7.10
2023-06-09T11:06:01.422Z,7.30
2023-06-09T11:09:06.500Z,6.68
2023-06-09T11:11:50.522Z,6.50
2023-06-09T11:14:52.934Z,6.25
2023-06-09T11:17:27.003Z,7.75
2023-06-09T11:19:56.949Z,7.00
2023-06-09T11:22:23.985Z,6.65
2023-06-09T11:24:52.063Z,7.32
2023-06-09T11:27:24.619Z,6.70
2023-06-09T11:30:12.972Z,6.55
2023-06-09T11:32:53.574Z,6.65
2023-06-09T11:35:29.445Z,7.22
2023-06-09T11:37:57.450Z,7.85
2023-06-09T11:40:27.257Z,6.15
2023-06-09T11:42:54.398Z,7.53
2023-06-09T11:45:24.307Z,7.45
2023-06-09T11:47:50.977Z,6.93
2023-06-09T11:50:17.592Z,8.23
2023-06-09T11:52:46.024Z,7.32
2023-06-09T11:55:14.239Z,6.85
2023-06-09T11:57:40.904Z,7.43
2023-06-09T12:00:15.541Z,7.43
2023-06-09T12:02:48.598Z,7.30
2023-06-09T12:05:15.537Z,7.15
2023-06-09T12:07:44.249Z,7.53
2023-06-09T12:10:11.422Z,7.20
2023-06-09T12:12:48.389Z,7.35
2023-06-09T12:15:16.660Z,6.70
2023-06-09T12:17:44.481Z,6.00
2023-06-09T12:20:30.180Z,7.15
2023-06-09T12:22:59.575Z,6.78
2023-06-09T12:25:28.504Z,6.05
2023-06-09T12:28:14.191Z,6.57
2023-06-09T12:30:49.174Z,6.20
2023-06-09T12:33:20.715Z,6.95
2023-06-09T12:35:52.390Z,6.13
2023-06-09T12:38:24.244Z,6.60
2023-06-09T12:40:50.862Z,5.88
2023-06-09T12:43:19.265Z,5.88
2023-06-09T12:45:47.729Z,6.20
2023-06-09T12:48:14.418Z,6.05
2023-06-09T12:50:41.294Z,6.22
2023-06-09T12:53:08.904Z,5.50
2023-06-09T12:55:36.250Z,5.45
2023-06-09T12:58:04.090Z,6.05
2023-06-09T13:00:31.090Z,6.47
2023-06-09T13:03:00.040Z,5.72
2023-06-09T13:05:34.035Z,6.50
2023-06-09T13:08:02.026Z,6.82
2023-06-09T13:10:29.855Z,5.90
2023-06-09T13:12:56.825Z,6.43
2023-06-09T13:15:24.937Z,6.03
2023-06-09T13:17:52.238Z,6.63
2023-06-09T13:20:19.343Z,6.45
2023-06-09T13:22:46.583Z,5.95
2023-06-09T13:25:13.337Z,6.13
2023-06-09T13:27:45.301Z,5.90
2023-06-09T13:30:12.400Z,5.95
2023-06-09T13:32:38.896Z,6.10
2023-06-09T13:35:06.152Z,6.00
2023-06-09T13:37:32.953Z,6.57
2023-06-09T13:39:59.385Z,6.43
2023-06-09T13:42:25.870Z,5.80
2023-06-09T13:44:52.313Z,6.50
2023-06-09T13:47:18.835Z,5.93
2023-06-09T13:49:45.482Z,6.00
2023-06-09T13:52:11.930Z,6.15
2023-06-09T13:54:38.362Z,6.10
2023-06-09T13:57:08.272Z,6.45
2023-06-09T13:59:37.993Z,6.40
2023-06-09T14:02:05.789Z,6.15
2023-06-09T14:04:33.220Z,6.00
2023-06-09T14:06:59.982Z,6.15
2023-06-09T14:09:26.480Z,5.78
2023-06-09T14:11:53.003Z,6.15
2023-06-09T14:14:19.466Z,6.38
2023-06-09T14:16:47.238Z,5.68
2023-06-09T14:19:14.115Z,5.82
2023-06-09T14:21:40.621Z,6.00
2023-06-09T14:24:09.673Z,5.72
2023-06-09T14:26:36.642Z,5.53
2023-06-09T14:29:03.847Z,5.57
2023-06-09T14:31:30.543Z,4.97
2023-06-09T14:33:57.074Z,5.63
2023-06-09T14:36:23.605Z,5.03
2023-06-09T14:38:50.073Z,6.13
2023-06-09T14:41:16.608Z,5.75
2023-06-09T14:43:45.092Z,6.30
2023-06-09T14:46:11.546Z,5.60
2023-06-09T14:48:38.058Z,5.63
2023-06-09T14:51:04.575Z,5.85
2023-06-09T14:53:31.101Z,6.13
2023-06-09T14:55:58.303Z,5.47
2023-06-09T14:58:24.774Z,6.05
2023-06-09T15:00:51.222Z,6.45
2023-06-09T15:03:18.310Z,5.78
2023-06-09T15:05:45.198Z,5.28
2023-06-09T15:08:11.748Z,5.47
2023-06-09T15:10:42.662Z,6.10
2023-06-09T15:13:09.523Z,5.85
2023-06-09T15:15:37.207Z,5.70
2023-06-09T15:18:06.114Z,6.20
2023-06-09T15:20:34.265Z,5.55
2023-06-09T15:23:02.930Z,5.90
2023-06-09T15:25:31.327Z,5.90
2023-06-09T15:28:02.326Z,6.03
2023-06-09T15:33:04.807Z,5.88
2023-06-09T15:35:37.940Z,5.88
2023-06-09T15:38:06.032Z,6.05
2023-06-09T15:40:37.111Z,5.88
2023-06-09T15:43:04.054Z,5.72
2023-06-09T15:45:37.411Z,5.63
2023-06-09T15:48:03.973Z,6.13
2023-06-09T15:50:30.740Z,5.85
2023-06-09T15:52:59.034Z,5.65
2023-06-09T15:55:25.741Z,5.82
2023-06-09T15:57:52.238Z,5.60
2023-06-09T16:00:19.173Z,5.72
2023-06-09T16:02:45.759Z,5.88
2023-06-09T16:05:12.374Z,6.00
2023-06-09T16:07:38.881Z,5.82
2023-06-09T16:10:05.754Z,5.85
2023-06-09T16:12:32.284Z,5.82
2023-06-09T16:14:58.894Z,6.18
2023-06-09T16:17:25.464Z,5.72
2023-06-09T16:19:51.961Z,5.93
2023-06-09T16:22:18.487Z,6.43
2023-06-09T16:24:46.437Z,5.55
2023-06-09T16:27:14.023Z,6.10
2023-06-09T16:29:40.458Z,5.70
2023-06-09T16:32:06.980Z,5.80
2023-06-09T16:34:33.461Z,5.85
2023-06-09T16:36:59.936Z,6.07
2023-06-09T16:39:26.375Z,6.07
2023-06-09T16:41:52.832Z,5.95
2023-06-09T16:44:19.278Z,5.10
2023-06-09T16:46:46.164Z,6.20
2023-06-09T16:49:12.735Z,5.85
2023-06-09T16:51:39.249Z,5.28
2023-06-09T16:54:05.980Z,5.93
2023-06-09T16:56:32.461Z,7.22
2023-06-09T16:58:58.933Z,7.93
2023-06-09T17:01:25.483Z,6.22
2023-06-09T17:03:52.112Z,5.90
2023-06-09T17:06:18.614Z,6.00
2023-06-09T17:08:48.302Z,6.63
2023-06-09T17:11:14.740Z,6.05
2023-06-09T17:13:41.547Z,5.80
2023-06-09T17:16:08.031Z,5.80
2023-06-09T17:18:34.464Z,6.55
2023-06-09T17:21:04.125Z,5.97
2023-06-09T17:23:31.222Z,6.15
2023-06-09T17:25:57.704Z,5.82
2023-06-09T17:28:24.201Z,6.95
2023-06-09T17:30:50.685Z,6.13
2023-06-09T17:33:17.599Z,6.75
2023-06-09T17:35:44.079Z,5.75
2023-06-09T17:38:10.651Z,5.97
2023-06-09T17:40:37.940Z,5.72
2023-06-09T17:43:04.521Z,5.95
2023-06-09T17:45:32.851Z,5.93
2023-06-09T17:47:59.344Z,6.07
2023-06-09T17:50:26.017Z,6.55
2023-06-09T17:52:52.589Z,5.95
2023-06-09T17:55:19.056Z,5.82
2023-06-09T17:57:45.598Z,6.82
2023-06-09T18:00:12.744Z,5.88
2023-06-09T18:02:39.219Z,5.72
2023-06-09T18:05:06.138Z,6.63
2023-06-09T18:07:33.109Z,6.25
2023-06-09T18:10:00.366Z,6.57
2023-06-09T18:12:26.829Z,6.35
2023-06-09T18:14:53.269Z,6.05
2023-06-09T18:17:19.715Z,6.07
2023-06-09T18:19:46.249Z,7.10
2023-06-09T18:22:12.769Z,6.20
2023-06-09T18:24:39.212Z,6.10
2023-06-09T18:27:07.244Z,6.75
2023-06-09T18:29:33.678Z,6.10
2023-06-09T18:32:01.649Z,6.50
2023-06-09T18:34:28.120Z,6.88
2023-06-09T18:36:54.589Z,6.22
2023-06-09T18:39:21.095Z,6.65
2023-06-09T18:41:47.692Z,6.57
2023-06-09T18:44:16.436Z,6.80
2023-06-09T18:46:43.380Z,6.60
2023-06-09T18:49:09.914Z,6.25
2023-06-09T18:51:37.201Z,6.60
2023-06-09T18:54:06.504Z,6.30
2023-06-09T18:56:32.929Z,6.55
2023-06-09T18:58:59.474Z,6.75
2023-06-09T19:01:26.162Z,6.53
2023-06-09T19:03:53.444Z,6.13
2023-06-09T19:06:20.096Z,6.00
2023-06-09T19:08:46.874Z,6.03
2023-06-09T19:11:14.162Z,6.57
2023-06-09T19:13:40.662Z,6.30
2023-06-09T19:16:07.175Z,6.50
2023-06-09T19:18:33.655Z,6.05
2023-06-09T19:21:00.378Z,6.03
2023-06-09T19:23:26.953Z,5.85
2023-06-09T19:25:53.541Z,6.60
2023-06-09T19:28:20.065Z,6.10
2023-06-09T19:30:46.930Z,6.18
2023-06-09T19:33:13.678Z,6.63
2023-06-09T19:35:40.412Z,5.35
2023-06-09T19:38:06.849Z,6.55
2023-06-09T19:40:33.404Z,6.70
2023-06-09T19:42:59.980Z,6.93
2023-06-09T19:45:26.472Z,6.45
2023-06-09T19:47:53.366Z,6.53
2023-06-09T19:50:19.930Z,7.18
2023-06-09T19:52:46.443Z,6.45
2023-06-09T19:55:15.081Z,6.30
2023-06-09T19:57:43.499Z,6.05
2023-06-09T20:00:10.365Z,6.25
2023-06-09T20:02:36.936Z,5.93
2023-06-09T20:05:03.781Z,6.68
2023-06-09T20:07:30.311Z,5.78
2023-06-09T20:09:56.806Z,6.75
2023-06-09T20:12:23.938Z,6.40
2023-06-09T20:14:50.496Z,6.75
2023-06-09T20:17:18.459Z,6.22
2023-06-09T20:19:44.969Z,6.07
2023-06-09T20:22:11.478Z,6.22
2023-06-09T20:24:37.934Z,6.20
2023-06-09T20:27:04.692Z,6.38
2023-06-09T20:29:31.256Z,6.05
2023-06-09T20:31:57.725Z,5.80
2023-06-09T20:34:24.141Z,5.68
2023-06-09T20:36:50.621Z,5.78
2023-06-09T20:39:17.352Z,5.20
2023-06-09T20:41:43.862Z,5.22
2023-06-09T20:44:10.617Z,5.55
2023-06-09T20:46:37.136Z,4.80
2023-06-09T20:49:03.721Z,5.03
2023-06-09T20:51:30.167Z,4.97
2023-06-09T20:53:57.231Z,5.45
2023-06-09T20:56:24.004Z,5.10
2023-06-09T20:58:51.143Z,4.53
2023-06-09T21:01:17.969Z,4.75
2023-06-09T21:03:47.529Z,5.53
2023-06-09T21:06:21.365Z,4.78
2023-06-09T21:08:48.726Z,4.93
2023-06-09T21:11:15.550Z,5.15
2023-06-09T21:13:42.132Z,5.47
2023-06-09T21:16:08.623Z,5.28
2023-06-09T21:18:35.339Z,5.60
2023-06-09T21:21:01.950Z,5.05
2023-06-09T21:23:28.365Z,4.45
2023-06-09T21:25:54.877Z,5.60
2023-06-09T21:28:21.425Z,5.75
2023-06-09T21:30:48.054Z,4.78
2023-06-09T21:33:14.560Z,4.82
2023-06-09T21:35:41.049Z,4.65
2023-06-09T21:38:07.994Z,5.22
2023-06-09T21:40:34.500Z,4.97
2023-06-09T21:43:00.985Z,5.00
2023-06-09T21:45:28.557Z,4.82
2023-06-09T21:47:55.079Z,5.10
2023-06-09T21:50:22.968Z,4.47
2023-06-09T21:52:49.466Z,5.43
2023-06-09T21:55:16.032Z,5.03
2023-06-09T21:57:42.519Z,4.53
2023-06-09T22:00:13.668Z,5.00
2023-06-09T22:05:09.125Z,4.70
2023-06-09T22:07:36.125Z,4.93
2023-06-09T22:10:02.825Z,4.57
2023-06-09T22:12:38.794Z,4.32
2023-06-09T22:15:10.660Z,4.57
2023-06-09T22:17:39.734Z,4.05
2023-06-09T22:20:06.739Z,4.80
2023-06-09T22:22:33.775Z,4.18
2023-06-09T22:25:00.703Z,4.43
2023-06-09T22:27:31.505Z,4.18
2023-06-09T22:29:58.230Z,5.03
2023-06-09T22:32:24.772Z,4.00
2023-06-09T22:34:51.530Z,3.90
2023-06-09T22:37:18.738Z,4.25
2023-06-09T22:39:45.270Z,4.63
2023-06-09T22:42:11.962Z,4.85
2023-06-09T22:44:39.459Z,4.03
2023-06-09T22:47:06.121Z,3.85
2023-06-09T22:49:32.675Z,3.60
2023-06-09T22:52:03.150Z,4.35
2023-06-09T22:54:29.686Z,4.05
2023-06-09T22:56:56.176Z,3.70
2023-06-09T22:59:23.023Z,3.95
2023-06-09T23:01:49.666Z,4.35
2023-06-09T23:04:16.811Z,3.53
2023-06-09T23:06:43.506Z,4.35
2023-06-09T23:09:10.276Z,3.78
2023-06-09T23:11:37.422Z,4.35
2023-06-09T23:14:04.658Z,3.65
2023-06-09T23:16:31.151Z,3.97
2023-06-09T23:19:01.777Z,3.80
2023-06-09T23:21:29.340Z,4.57
2023-06-09T23:23:59.955Z,4.28
2023-06-09T23:26:26.771Z,4.20
2023-06-09T23:28:53.325Z,3.83
2023-06-09T23:31:21.479Z,4.45
2023-06-09T23:33:50.876Z,3.75
2023-06-09T23:36:18.519Z,3.60
2023-06-09T23:38:45.661Z,3.78
2023-06-09T23:41:12.284Z,4.80
2023-06-09T23:43:38.757Z,3.88
2023-06-09T23:46:05.310Z,4.00
2023-06-09T23:48:31.884Z,4.13
2023-06-09T23:50:58.309Z,4.32
2023-06-09T23:53:25.160Z,3.90
2023-06-09T23:55:53.037Z,4.15
2023-06-09T23:58:19.521Z,3.78
